createdAt,value
2022-09-10T00:01:47.165Z,16.02
2022-09-10T00:04:17.470Z,16.01
2022-09-10T00:06:46.899Z,15.95
2022-09-10T00:09:16.019Z,15.95
2022-09-10T00:11:46.768Z,15.84
2022-09-10T00:14:19.862Z,15.95
2022-09-10T00:16:49.850Z,15.91
2022-09-10T00:19:20.022Z,15.92
2022-09-10T00:21:51.355Z,15.90
2022-09-10T00:24:20.759Z,15.86
2022-09-10T00:26:49.617Z,15.87
2022-09-10T00:29:19.940Z,15.88
2022-09-10T00:31:49.934Z,15.83
2022-09-10T00:34:18.817Z,15.76
2022-09-10T00:36:48.098Z,15.78
2022-09-10T00:39:19.000Z,15.75
2022-09-10T00:41:49.336Z,15.70
2022-09-10T00:44:42.712Z,15.61
2022-09-10T00:47:34.217Z,15.62
2022-09-10T00:50:22.059Z,15.65
2022-09-10T00:52:54.498Z,15.83
2022-09-10T00:55:24.986Z,15.84
2022-09-10T00:57:58.045Z,15.87
2022-09-10T01:00:27.490Z,15.94
2022-09-10T01:02:56.961Z,15.97
2022-09-10T01:05:27.254Z,15.98
2022-09-10T01:07:59.019Z,16.02
2022-09-10T01:10:37.707Z,16.08
2022-09-10T01:13:30.768Z,16.14
2022-09-10T01:16:06.912Z,16.21
2022-09-10T01:18:49.871Z,16.24
2022-09-10T01:21:53.703Z,16.28
2022-09-10T01:24:29.830Z,16.36
2022-09-10T01:27:17.662Z,16.38
2022-09-10T01:29:59.580Z,16.36
2022-09-10T01:32:35.839Z,16.45
2022-09-10T01:35:11.297Z,16.50
2022-09-10T01:37:42.654Z,16.51
2022-09-10T01:40:13.220Z,16.60
2022-09-10T01:42:42.843Z,16.67
2022-09-10T01:45:15.885Z,16.72
2022-09-10T01:48:08.741Z,16.74
2022-09-10T01:51:03.560Z,16.84
2022-09-10T01:53:45.006Z,17.05
2022-09-10T01:56:42.466Z,17.39
2022-09-10T01:59:30.307Z,17.60
2022-09-10T02:02:08.820Z,17.73
2022-09-10T02:04:39.599Z,17.89
2022-09-10T02:07:12.894Z,17.98
2022-09-10T02:09:43.932Z,18.11
2022-09-10T02:12:24.793Z,18.20
2022-09-10T02:15:02.014Z,18.37
2022-09-10T02:17:57.607Z,18.49
2022-09-10T02:20:31.337Z,18.41
2022-09-10T02:23:03.277Z,18.68
2022-09-10T02:25:35.647Z,18.79
2022-09-10T02:28:07.113Z,19.10
2022-09-10T02:30:36.355Z,19.38
2022-09-10T02:33:05.386Z,19.43
2022-09-10T02:35:34.491Z,19.51
2022-09-10T02:38:03.778Z,19.67
2022-09-10T02:40:33.507Z,20.31
2022-09-10T02:43:05.905Z,20.80
2022-09-10T02:45:35.525Z,21.59
2022-09-10T02:48:05.249Z,22.51
2022-09-10T02:50:35.959Z,23.52
2022-09-10T02:53:07.886Z,24.08
2022-09-10T02:55:38.511Z,24.86
2022-09-10T02:58:08.102Z,24.63
2022-09-10T03:00:37.487Z,24.48
2022-09-10T03:03:06.757Z,23.53
2022-09-10T03:05:39.249Z,22.69
2022-09-10T03:08:10.133Z,22.37
2022-09-10T03:10:43.535Z,21.51
2022-09-10T03:13:13.596Z,20.68
2022-09-10T03:15:44.446Z,20.36
2022-09-10T03:18:15.965Z,19.97
2022-09-10T03:20:45.167Z,19.83
2022-09-10T03:23:14.155Z,19.20
2022-09-10T03:25:45.108Z,18.98
2022-09-10T03:28:17.260Z,18.95
2022-09-10T03:30:46.551Z,18.78
2022-09-10T03:33:16.475Z,18.45
2022-09-10T03:35:46.466Z,18.34
2022-09-10T03:38:16.573Z,18.09
2022-09-10T03:40:46.853Z,17.82
2022-09-10T03:43:16.595Z,17.79
2022-09-10T03:45:50.290Z,17.37
2022-09-10T03:48:21.561Z,16.93
2022-09-10T03:50:54.396Z,16.97
2022-09-10T03:53:24.748Z,16.69
2022-09-10T03:55:56.737Z,16.65
2022-09-10T03:58:26.030Z,16.61
2022-09-10T04:00:54.926Z,16.62
2022-09-10T04:03:24.803Z,16.55
2022-09-10T04:05:54.357Z,16.55
2022-09-10T04:08:24.199Z,16.38
2022-09-10T04:10:54.546Z,16.26
2022-09-10T04:13:24.165Z,16.22
2022-09-10T04:15:55.110Z,16.02
2022-09-10T04:18:24.827Z,15.88
2022-09-10T04:20:54.915Z,15.85
2022-09-10T04:23:25.704Z,15.79
2022-09-10T04:25:55.474Z,15.73
2022-09-10T04:28:25.166Z,15.69
2022-09-10T04:30:56.213Z,15.47
2022-09-10T04:33:27.407Z,15.58
2022-09-10T04:36:01.716Z,15.59
2022-09-10T04:38:32.088Z,15.44
2022-09-10T04:41:02.904Z,15.44
2022-09-10T04:43:32.169Z,15.41
2022-09-10T04:46:02.869Z,15.40
2022-09-10T04:48:34.609Z,15.37
2022-09-10T04:51:16.247Z,15.36
2022-09-10T04:53:48.739Z,15.18
2022-09-10T04:56:18.914Z,15.32
2022-09-10T04:58:49.451Z,15.30
2022-09-10T05:01:18.691Z,15.19
2022-09-10T05:03:50.756Z,15.25
2022-09-10T05:06:21.357Z,15.23
2022-09-10T05:08:51.972Z,15.13
2022-09-10T05:11:21.645Z,15.09
2022-09-10T05:13:50.814Z,15.07
2022-09-10T05:16:23.604Z,15.04
2022-09-10T05:18:54.293Z,14.99
2022-09-10T05:21:23.709Z,14.91
2022-09-10T05:23:57.054Z,14.94
2022-09-10T05:26:29.076Z,14.92
2022-09-10T05:29:00.741Z,14.89
2022-09-10T05:31:30.484Z,14.89
2022-09-10T05:34:02.156Z,14.85
2022-09-10T05:36:35.589Z,14.98
2022-09-10T05:39:06.077Z,15.10
2022-09-10T05:41:38.736Z,15.16
2022-09-10T05:44:08.036Z,15.24
2022-09-10T05:46:36.860Z,15.25
2022-09-10T05:49:14.094Z,15.43
2022-09-10T05:51:43.602Z,15.51
2022-09-10T05:54:13.742Z,15.75
2022-09-10T05:56:43.391Z,16.26
2022-09-10T05:59:12.330Z,16.73
2022-09-10T06:01:46.547Z,17.12
2022-09-10T06:04:17.350Z,17.48
2022-09-10T06:06:47.586Z,17.92
2022-09-10T06:09:16.916Z,18.42
2022-09-10T06:12:00.592Z,19.12
2022-09-10T06:14:30.127Z,19.43
2022-09-10T06:16:59.815Z,19.94
2022-09-10T06:19:31.558Z,20.45
2022-09-10T06:22:01.864Z,20.82
2022-09-10T06:24:34.943Z,21.05
2022-09-10T06:27:04.129Z,21.50
2022-09-10T06:29:37.166Z,21.85
2022-09-10T06:32:07.636Z,22.11
2022-09-10T06:34:36.814Z,22.23
2022-09-10T06:37:07.479Z,21.81
2022-09-10T06:39:39.750Z,21.60
2022-09-10T06:42:09.953Z,21.61
2022-09-10T06:45:11.163Z,21.59
2022-09-10T06:48:37.612Z,21.37
2022-09-10T06:51:00.343Z,21.09
2022-09-10T06:53:34.715Z,20.85
2022-09-10T06:56:07.208Z,20.72
2022-09-10T06:58:37.737Z,20.67
2022-09-10T07:01:15.445Z,20.51
2022-09-10T07:03:50.296Z,20.61
2022-09-10T07:06:20.469Z,20.78
2022-09-10T07:08:57.720Z,20.66
2022-09-10T07:11:31.433Z,20.69
2022-09-10T07:14:02.572Z,20.69
2022-09-10T07:16:34.069Z,20.72
2022-09-10T07:19:03.329Z,20.77
2022-09-10T07:21:38.883Z,21.12
2022-09-10T07:24:15.636Z,21.15
2022-09-10T07:27:06.315Z,21.02
2022-09-10T07:29:37.708Z,21.14
2022-09-10T07:32:13.613Z,20.91
2022-09-10T07:34:44.153Z,20.65
2022-09-10T07:37:16.773Z,20.56
2022-09-10T07:39:47.941Z,20.35
2022-09-10T07:42:19.152Z,20.06
2022-09-10T07:44:51.485Z,19.94
2022-09-10T07:47:22.024Z,19.92
2022-09-10T07:49:54.005Z,20.06
2022-09-10T07:52:23.315Z,20.23
2022-09-10T07:54:56.086Z,20.30
2022-09-10T07:57:25.403Z,20.30
2022-09-10T07:59:55.752Z,20.56
2022-09-10T08:02:26.921Z,21.04
2022-09-10T08:05:02.523Z,22.30
2022-09-10T08:07:32.908Z,23.23
2022-09-10T08:10:03.196Z,24.09
2022-09-10T08:12:34.809Z,24.48
2022-09-10T08:15:04.180Z,25.27
2022-09-10T08:17:33.671Z,25.19
2022-09-10T08:20:05.266Z,24.89
2022-09-10T08:22:35.749Z,24.59
2022-09-10T08:25:05.462Z,25.12
2022-09-10T08:27:36.580Z,24.92
2022-09-10T08:30:08.833Z,24.03
2022-09-10T08:32:39.916Z,25.18
2022-09-10T08:35:09.493Z,26.62
2022-09-10T08:37:39.139Z,26.75
2022-09-10T08:40:13.171Z,27.18
2022-09-10T08:42:51.228Z,27.14
2022-09-10T08:45:30.517Z,25.18
2022-09-10T08:48:19.086Z,24.55
2022-09-10T08:51:01.915Z,25.70
2022-09-10T08:53:49.814Z,25.96
2022-09-10T08:56:23.508Z,25.16
2022-09-10T08:59:15.096Z,24.40
2022-09-10T09:01:55.750Z,23.89
2022-09-10T09:04:48.807Z,23.61
2022-09-10T09:07:22.080Z,23.46
2022-09-10T09:09:57.677Z,22.79
2022-09-10T09:12:40.356Z,22.70
2022-09-10T09:15:18.331Z,22.40
2022-09-10T09:18:09.724Z,22.18
2022-09-10T09:20:52.544Z,22.00
2022-09-10T09:23:33.978Z,21.69
2022-09-10T09:26:14.862Z,21.69
2022-09-10T09:29:00.814Z,21.50
2022-09-10T09:31:41.485Z,21.65
2022-09-10T09:34:29.897Z,21.66
2022-09-10T09:37:02.303Z,21.56
2022-09-10T09:39:43.094Z,21.63
2022-09-10T09:42:21.528Z,21.61
2022-09-10T09:45:04.526Z,21.56
2022-09-10T09:47:34.791Z,21.71
2022-09-10T09:50:08.353Z,21.96
2022-09-10T09:52:39.491Z,21.36
2022-09-10T09:55:29.700Z,22.33
2022-09-10T09:58:23.284Z,23.06
2022-09-10T10:01:08.170Z,22.95
2022-09-10T10:03:59.811Z,22.77
2022-09-10T10:06:49.213Z,23.20
2022-09-10T10:09:23.801Z,24.96
2022-09-10T10:11:59.565Z,24.01
2022-09-10T10:14:49.268Z,22.98
2022-09-10T10:17:33.722Z,23.07
2022-09-10T10:20:09.605Z,23.12
2022-09-10T10:22:41.523Z,22.60
2022-09-10T10:25:43.952Z,22.05
2022-09-10T10:28:28.493Z,22.00
2022-09-10T10:31:02.000Z,21.47
2022-09-10T10:33:36.333Z,21.19
2022-09-10T10:36:19.476Z,21.42
2022-09-10T10:39:04.720Z,21.45
2022-09-10T10:42:14.676Z,21.36
2022-09-10T10:45:20.780Z,21.42
2022-09-10T10:48:03.209Z,21.98
2022-09-10T10:50:38.013Z,22.52
2022-09-10T10:54:05.536Z,22.71
2022-09-10T10:56:43.709Z,22.97
2022-09-10T10:59:35.253Z,23.34
2022-09-10T11:02:15.156Z,23.34
2022-09-10T11:04:55.785Z,22.96
2022-09-10T11:07:35.099Z,22.23
2022-09-10T11:10:29.580Z,22.26
2022-09-10T11:13:14.706Z,22.06
2022-09-10T11:16:02.365Z,22.20
2022-09-10T11:18:44.800Z,22.79
2022-09-10T11:21:38.535Z,23.10
2022-09-10T11:24:20.177Z,23.51
2022-09-10T11:27:09.670Z,23.72
2022-09-10T11:29:50.840Z,23.05
2022-09-10T11:32:31.225Z,23.31
2022-09-10T11:35:08.054Z,22.94
2022-09-10T11:38:04.748Z,22.41
2022-09-10T11:41:07.624Z,22.72
2022-09-10T11:43:48.686Z,22.77
2022-09-10T11:46:52.668Z,21.91
2022-09-10T11:50:02.170Z,21.27
2022-09-10T11:52:36.032Z,21.51
2022-09-10T11:55:09.406Z,21.48
2022-09-10T11:57:58.774Z,21.26
2022-09-10T12:00:31.118Z,20.93
2022-09-10T12:03:18.595Z,20.46
2022-09-10T12:06:04.852Z,19.91
2022-09-10T12:08:56.648Z,20.18
2022-09-10T12:11:44.277Z,19.92
2022-09-10T12:14:20.653Z,19.77
2022-09-10T12:17:28.325Z,19.71
2022-09-10T12:20:00.549Z,19.57
2022-09-10T12:22:37.830Z,19.75
2022-09-10T12:25:28.346Z,19.57
2022-09-10T12:28:03.943Z,19.46
2022-09-10T12:30:36.199Z,19.26
2022-09-10T12:33:14.429Z,19.02
2022-09-10T12:35:53.762Z,18.71
2022-09-10T12:38:44.627Z,18.64
2022-09-10T12:41:34.748Z,18.62
2022-09-10T12:55:58.895Z,17.60
2022-09-10T12:59:42.994Z,17.41
2022-09-10T13:02:49.803Z,17.25
2022-09-10T13:05:30.583Z,17.34
2022-09-10T13:08:18.834Z,17.25
2022-09-10T13:11:10.576Z,17.02
2022-09-10T13:14:04.398Z,16.98
2022-09-10T13:16:33.854Z,16.76
2022-09-10T13:19:14.754Z,16.83
2022-09-10T13:21:46.479Z,16.83
2022-09-10T13:24:35.309Z,16.83
2022-09-10T13:27:14.502Z,16.76
2022-09-10T13:29:54.257Z,16.65
2022-09-10T13:32:23.699Z,16.60
2022-09-10T13:35:08.535Z,16.52
2022-09-10T13:38:05.046Z,16.46
2022-09-10T13:41:05.595Z,16.36
2022-09-10T13:44:02.719Z,16.41
2022-09-10T13:46:45.439Z,16.41
2022-09-10T13:49:30.222Z,16.39
2022-09-10T13:52:03.556Z,16.39
2022-09-10T13:54:37.343Z,16.26
2022-09-10T13:57:14.577Z,16.20
2022-09-10T13:59:44.601Z,16.16
2022-09-10T14:02:13.503Z,16.07
2022-09-10T14:04:45.032Z,15.94
2022-09-10T14:07:22.210Z,15.85
2022-09-10T14:09:57.785Z,15.80
2022-09-10T14:12:34.178Z,15.70
2022-09-10T14:15:09.157Z,15.76
2022-09-10T14:17:46.551Z,15.64
2022-09-10T14:20:32.026Z,15.65
2022-09-10T14:23:07.961Z,15.63
2022-09-10T14:25:40.945Z,15.55
2022-09-10T14:28:27.873Z,15.74
2022-09-10T14:31:31.155Z,15.88
2022-09-10T14:34:20.760Z,15.86
2022-09-10T14:36:50.161Z,15.73
2022-09-10T14:39:23.840Z,15.75
2022-09-10T14:42:26.155Z,15.70
2022-09-10T14:44:55.942Z,15.56
2022-09-10T14:47:33.133Z,15.44
2022-09-10T14:50:41.123Z,15.39
2022-09-10T14:53:10.298Z,15.49
2022-09-10T14:55:39.379Z,15.63
2022-09-10T14:58:08.574Z,15.67
2022-09-10T15:00:37.704Z,15.67
2022-09-10T15:03:06.787Z,15.87
2022-09-10T15:05:35.727Z,15.94
2022-09-10T15:08:05.282Z,15.72
2022-09-10T15:10:34.249Z,15.94
2022-09-10T15:13:03.425Z,15.98
2022-09-10T15:15:32.889Z,16.08
2022-09-10T15:18:04.080Z,16.23
2022-09-10T15:20:33.559Z,16.39
2022-09-10T15:23:02.440Z,16.40
2022-09-10T15:25:53.066Z,16.32
2022-09-10T15:28:23.158Z,16.35
2022-09-10T15:30:52.225Z,16.43
2022-09-10T15:33:21.101Z,16.56
2022-09-10T15:35:50.275Z,16.53
2022-09-10T15:38:22.037Z,16.68
2022-09-10T15:40:51.826Z,16.64
2022-09-10T15:43:21.526Z,16.45
2022-09-10T15:45:51.003Z,16.26
2022-09-10T15:48:19.794Z,16.14
2022-09-10T15:50:50.049Z,16.13
2022-09-10T15:53:21.377Z,16.17
2022-09-10T15:55:51.797Z,16.08
2022-09-10T15:58:21.039Z,16.29
2022-09-10T16:00:50.203Z,16.35
2022-09-10T16:03:21.216Z,16.35
2022-09-10T16:05:50.298Z,16.30
2022-09-10T16:08:19.464Z,16.25
2022-09-10T16:10:48.725Z,16.19
2022-09-10T16:13:17.938Z,16.12
2022-09-10T16:15:59.696Z,16.15
2022-09-10T16:18:41.807Z,16.02
2022-09-10T16:21:19.879Z,16.13
2022-09-10T16:24:08.840Z,16.14
2022-09-10T16:26:43.605Z,15.97
2022-09-10T16:29:18.374Z,15.82
2022-09-10T16:31:49.577Z,15.74
2022-09-10T16:34:22.997Z,15.59
2022-09-10T16:36:52.836Z,15.77
2022-09-10T16:39:22.360Z,15.84
2022-09-10T16:41:52.577Z,15.86
2022-09-10T16:44:21.778Z,15.82
2022-09-10T16:46:52.449Z,15.79
2022-09-10T16:49:22.738Z,15.83
2022-09-10T16:52:10.496Z,16.07
2022-09-10T16:54:41.316Z,16.08
2022-09-10T16:57:11.241Z,15.86
2022-09-10T16:59:40.618Z,15.81
2022-09-10T17:02:11.416Z,15.69
2022-09-10T17:04:40.999Z,15.65
2022-09-10T17:07:11.078Z,15.57
2022-09-10T17:09:41.891Z,15.54
2022-09-10T17:12:11.761Z,15.58
2022-09-10T17:14:41.086Z,15.64
2022-09-10T17:17:11.717Z,15.65
2022-09-10T17:19:41.240Z,15.69
2022-09-10T17:22:11.736Z,15.71
2022-09-10T17:24:43.960Z,15.68
2022-09-10T17:27:13.550Z,15.70
2022-09-10T17:29:42.997Z,15.58
2022-09-10T17:32:12.440Z,15.70
2022-09-10T17:34:41.877Z,15.57
2022-09-10T17:37:12.602Z,15.77
2022-09-10T17:39:41.843Z,15.81
2022-09-10T17:42:11.608Z,15.85
2022-09-10T17:44:40.770Z,15.69
2022-09-10T17:47:10.872Z,15.87
2022-09-10T17:49:40.563Z,15.88
2022-09-10T17:52:10.042Z,15.91
2022-09-10T17:54:40.676Z,15.91
2022-09-10T17:57:12.939Z,15.87
2022-09-10T17:59:42.847Z,15.82
2022-09-10T18:02:17.274Z,15.79
2022-09-10T18:04:52.276Z,15.82
2022-09-10T18:07:22.836Z,15.85
2022-09-10T18:09:51.879Z,15.84
2022-09-10T18:12:23.634Z,15.80
2022-09-10T18:14:52.957Z,15.90
2022-09-10T18:17:22.756Z,15.98
2022-09-10T18:19:52.199Z,15.89
2022-09-10T18:22:21.962Z,15.89
2022-09-10T18:32:16.119Z,15.60
2022-09-10T18:35:00.818Z,15.71
2022-09-10T18:37:31.337Z,15.61
2022-09-10T18:40:52.718Z,15.71
2022-09-10T18:43:23.079Z,15.69
2022-09-10T18:45:54.196Z,15.92
2022-09-10T18:48:23.900Z,15.98
2022-09-10T18:50:58.360Z,15.89
2022-09-10T18:53:27.964Z,15.80
2022-09-10T18:55:57.539Z,15.57
2022-09-10T18:58:26.762Z,15.48
2022-09-10T19:01:15.031Z,15.39
2022-09-10T19:03:48.019Z,15.39
2022-09-10T19:06:40.657Z,15.26
2022-09-10T19:09:13.225Z,15.06
2022-09-10T19:11:45.702Z,15.06
2022-09-10T19:14:36.614Z,15.11
2022-09-10T19:17:05.778Z,14.88
2022-09-10T19:19:37.395Z,15.07
2022-09-10T19:22:08.279Z,15.09
2022-09-10T19:24:53.924Z,15.04
2022-09-10T19:27:25.182Z,15.01
2022-09-10T19:29:54.836Z,15.17
2022-09-10T19:32:23.665Z,15.16
2022-09-10T19:34:53.769Z,15.39
2022-09-10T19:37:22.614Z,15.31
2022-09-10T19:39:52.006Z,15.26
2022-09-10T19:42:21.093Z,15.28
2022-09-10T19:44:49.826Z,15.21
2022-09-10T19:47:19.458Z,15.11
2022-09-10T19:49:49.393Z,14.96
2022-09-10T19:52:18.301Z,15.14
2022-09-10T19:54:47.360Z,15.11
2022-09-10T19:57:17.080Z,15.14
2022-09-10T19:59:45.808Z,15.10
2022-09-10T20:02:14.758Z,15.08
2022-09-10T20:04:43.662Z,15.14
2022-09-10T20:07:12.887Z,15.24
2022-09-10T20:09:41.958Z,15.01
2022-09-10T20:12:11.809Z,15.28
2022-09-10T20:14:41.373Z,15.10
2022-09-10T20:17:10.308Z,15.23
2022-09-10T20:19:39.103Z,15.52
2022-09-10T20:22:08.709Z,15.53
2022-09-10T20:24:38.088Z,15.68
2022-09-10T20:27:07.403Z,15.65
2022-09-10T20:29:36.262Z,15.81
2022-09-10T20:32:05.173Z,15.70
2022-09-10T20:34:35.962Z,15.94
2022-09-10T20:37:04.843Z,15.91
2022-09-10T20:39:33.527Z,15.94
2022-09-10T20:42:02.630Z,15.76
2022-09-10T20:44:31.389Z,15.73
2022-09-10T20:47:01.133Z,15.77
2022-09-10T20:49:29.910Z,15.83
2022-09-10T20:52:00.297Z,15.84
2022-09-10T20:54:29.384Z,15.73
2022-09-10T20:56:58.148Z,15.81
2022-09-10T20:59:27.904Z,15.71
2022-09-10T21:01:57.468Z,15.52
2022-09-10T21:04:27.253Z,15.69
2022-09-10T21:06:56.504Z,15.71
2022-09-10T21:09:25.469Z,15.57
2022-09-10T21:11:54.378Z,15.56
2022-09-10T21:14:23.163Z,15.51
2022-09-10T21:16:52.476Z,15.40
2022-09-10T21:19:22.952Z,15.44
2022-09-10T21:21:51.919Z,15.47
2022-09-10T21:24:23.471Z,15.46
2022-09-10T21:26:54.477Z,15.49
2022-09-10T21:29:23.963Z,15.58
2022-09-10T21:31:55.732Z,15.34
2022-09-10T21:34:25.174Z,15.44
2022-09-10T21:36:53.855Z,15.50
2022-09-10T21:39:23.475Z,15.52
2022-09-10T21:41:52.612Z,15.70
2022-09-10T21:44:23.861Z,15.69
2022-09-10T21:46:54.029Z,15.81
2022-09-10T21:49:23.187Z,15.86
2022-09-10T21:51:52.100Z,15.69
2022-09-10T21:54:25.311Z,15.94
2022-09-10T21:56:54.378Z,15.90
2022-09-10T21:59:23.875Z,15.69
2022-09-10T22:01:53.185Z,15.70
2022-09-10T22:04:23.317Z,15.72
2022-09-10T22:06:54.822Z,15.63
2022-09-10T22:09:25.275Z,15.76
2022-09-10T22:11:55.539Z,15.83
2022-09-10T22:14:26.401Z,15.84
2022-09-10T22:16:55.958Z,15.83
2022-09-10T22:19:26.728Z,15.94
2022-09-10T22:21:57.655Z,15.94
2022-09-10T22:24:27.143Z,15.85
2022-09-10T22:27:00.052Z,15.73
2022-09-10T22:29:30.104Z,15.85
2022-09-10T22:31:58.880Z,15.90
2022-09-10T22:34:28.441Z,15.82
2022-09-10T22:36:57.173Z,15.73
2022-09-10T22:39:26.411Z,15.82
2022-09-10T22:41:56.418Z,15.56
2022-09-10T22:44:25.418Z,15.75
2022-09-10T22:46:54.263Z,15.61
2022-09-10T22:49:23.405Z,15.69
2022-09-10T22:51:52.342Z,15.56
2022-09-10T22:54:21.310Z,15.66
2022-09-10T22:56:50.073Z,15.65
2022-09-10T22:59:19.000Z,15.13
2022-09-10T23:01:51.216Z,15.56
2022-09-10T23:04:20.256Z,15.52
2022-09-10T23:06:48.990Z,15.53
2022-09-10T23:09:18.911Z,15.63
2022-09-10T23:11:48.056Z,15.71
2022-09-10T23:14:20.261Z,15.66
2022-09-10T23:16:52.039Z,15.74
2022-09-10T23:19:23.953Z,15.75
2022-09-10T23:21:55.614Z,15.63
2022-09-10T23:24:27.285Z,15.53
2022-09-10T23:26:56.909Z,15.56
2022-09-10T23:29:25.562Z,15.47
2022-09-10T23:31:55.204Z,15.24
2022-09-10T23:34:24.263Z,15.24
2022-09-10T23:36:53.800Z,15.15
2022-09-10T23:39:26.008Z,14.98
2022-09-10T23:41:57.941Z,14.99
2022-09-10T23:44:27.820Z,14.94
2022-09-10T23:46:56.946Z,14.89
2022-09-10T23:49:26.319Z,14.86
2022-09-10T23:51:55.257Z,14.82
2022-09-10T23:54:24.179Z,14.82
2022-09-10T23:56:52.898Z,14.66
2022-09-10T23:59:22.749Z,14.80
